createdAt,value
2022-12-06T00:01:28.983Z,87.40
2022-12-06T00:03:58.977Z,87.30
2022-12-06T00:06:29.958Z,87.30
2022-12-06T00:08:58.929Z,87.20
2022-12-06T00:11:29.784Z,87.10
2022-12-06T00:14:00.637Z,87.00
2022-12-06T00:16:28.641Z,87.00
2022-12-06T00:18:56.236Z,87.70
2022-12-06T00:21:32.726Z,86.90
2022-12-06T00:24:03.564Z,86.80
2022-12-06T00:26:31.353Z,86.70
2022-12-06T00:29:00.817Z,86.50
2022-12-06T00:31:30.696Z,86.50
2022-12-06T00:33:58.004Z,86.50
2022-12-06T00:36:29.005Z,86.50
2022-12-06T00:38:58.672Z,86.60
2022-12-06T00:41:25.794Z,86.50
2022-12-06T00:43:53.620Z,86.20
2022-12-06T00:46:28.177Z,86.10
2022-12-06T00:48:56.484Z,86.20
2022-12-06T00:51:25.585Z,86.30
2022-12-06T00:53:52.695Z,86.30
2022-12-06T00:56:19.955Z,86.20
2022-12-06T00:58:47.407Z,86.10
2022-12-06T01:01:23.825Z,86.10
2022-12-06T01:03:53.337Z,86.00
2022-12-06T01:06:28.155Z,86.00
2022-12-06T01:08:57.697Z,85.90
2022-12-06T01:11:27.207Z,85.90
2022-12-06T01:13:54.951Z,85.90
2022-12-06T01:16:26.653Z,85.90
2022-12-06T01:18:57.766Z,85.80
2022-12-06T01:21:25.686Z,85.90
2022-12-06T01:23:54.435Z,85.90
2022-12-06T01:26:34.128Z,85.90
2022-12-06T01:29:02.386Z,85.90
2022-12-06T01:31:37.332Z,86.10
2022-12-06T01:34:05.688Z,86.00
2022-12-06T01:36:33.185Z,86.00
2022-12-06T01:39:01.132Z,85.90
2022-12-06T01:41:28.289Z,85.70
2022-12-06T01:43:56.569Z,85.60
2022-12-06T01:46:40.208Z,85.70
2022-12-06T01:49:20.900Z,85.30
2022-12-06T01:52:07.550Z,85.30
2022-12-06T01:54:34.748Z,85.20
2022-12-06T01:57:06.737Z,85.30
2022-12-06T01:59:33.677Z,85.10
2022-12-06T02:02:00.564Z,85.90
2022-12-06T02:04:30.479Z,85.30
2022-12-06T02:06:59.927Z,85.40
2022-12-06T02:09:29.507Z,85.20
2022-12-06T02:11:56.504Z,85.10
2022-12-06T02:14:31.605Z,85.00
2022-12-06T02:17:25.107Z,85.10
2022-12-06T02:20:11.821Z,84.90
2022-12-06T02:23:29.776Z,84.60
2022-12-06T02:26:47.163Z,84.50
2022-12-06T02:29:47.699Z,84.20
2022-12-06T02:32:38.313Z,84.60
2022-12-06T02:35:22.670Z,84.50
2022-12-06T02:37:55.437Z,84.50
2022-12-06T02:40:36.713Z,84.30
2022-12-06T02:43:12.979Z,84.60
2022-12-06T02:45:48.952Z,84.70
2022-12-06T02:48:20.197Z,84.80
2022-12-06T02:51:10.892Z,85.00
2022-12-06T02:53:44.891Z,85.00
2022-12-06T02:56:13.383Z,85.00
2022-12-06T02:58:40.116Z,84.70
2022-12-06T03:01:18.296Z,84.80
2022-12-06T03:04:17.492Z,84.60
2022-12-06T03:07:14.322Z,84.60
2022-12-06T03:10:09.810Z,84.50
2022-12-06T03:12:51.910Z,84.60
2022-12-06T03:15:37.703Z,84.80
2022-12-06T03:18:25.418Z,84.80
2022-12-06T03:20:58.757Z,84.60
2022-12-06T03:23:37.356Z,84.60
2022-12-06T03:26:10.426Z,85.30
2022-12-06T03:28:39.143Z,84.70
2022-12-06T03:31:13.056Z,84.80
2022-12-06T03:33:49.890Z,84.80
2022-12-06T03:36:18.723Z,84.60
2022-12-06T03:38:57.828Z,84.60
2022-12-06T03:41:32.672Z,84.50
2022-12-06T03:44:00.156Z,84.50
2022-12-06T03:46:44.211Z,84.50
2022-12-06T03:49:18.576Z,84.30
2022-12-06T03:51:46.695Z,84.30
2022-12-06T03:54:13.471Z,84.50
2022-12-06T03:56:40.228Z,84.60
2022-12-06T03:59:10.651Z,84.80
2022-12-06T04:01:39.090Z,85.00
2022-12-06T04:04:06.663Z,85.10
2022-12-06T04:06:33.487Z,86.00
2022-12-06T04:09:19.336Z,85.30
2022-12-06T04:11:46.814Z,85.40
2022-12-06T04:14:13.668Z,85.40
2022-12-06T04:16:58.888Z,85.40
2022-12-06T04:19:25.722Z,85.40
2022-12-06T04:22:11.175Z,85.20
2022-12-06T04:24:37.936Z,85.30
2022-12-06T04:27:23.397Z,85.30
2022-12-06T04:30:08.999Z,85.00
2022-12-06T04:32:54.168Z,84.90
2022-12-06T04:35:39.632Z,84.80
2022-12-06T04:38:25.338Z,84.60
2022-12-06T04:40:52.066Z,84.60
2022-12-06T04:43:37.507Z,84.80
2022-12-06T04:46:04.556Z,85.00
2022-12-06T04:48:31.500Z,85.50
2022-12-06T04:50:59.298Z,85.00
2022-12-06T04:53:26.229Z,85.10
2022-12-06T04:55:53.013Z,85.00
2022-12-06T04:58:19.860Z,85.00
2022-12-06T05:00:46.784Z,84.90
2022-12-06T05:03:15.044Z,84.80
2022-12-06T05:05:42.678Z,84.70
2022-12-06T05:08:10.070Z,84.50
2022-12-06T05:10:37.684Z,84.20
2022-12-06T05:13:04.891Z,84.10
2022-12-06T05:15:33.199Z,84.10
2022-12-06T05:17:59.960Z,83.90
2022-12-06T05:20:26.774Z,84.10
2022-12-06T05:22:53.505Z,84.10
2022-12-06T05:25:20.319Z,84.70
2022-12-06T05:27:47.078Z,84.10
2022-12-06T05:30:14.525Z,83.90
2022-12-06T05:32:41.423Z,83.90
2022-12-06T05:35:09.074Z,83.90
2022-12-06T05:37:35.798Z,83.90
2022-12-06T05:40:03.131Z,84.00
2022-12-06T05:42:30.276Z,84.00
2022-12-06T05:44:57.048Z,83.90
2022-12-06T05:47:23.836Z,83.90
2022-12-06T05:49:51.276Z,84.00
2022-12-06T05:52:18.358Z,84.20
2022-12-06T05:54:45.153Z,84.40
2022-12-06T05:57:12.941Z,84.50
2022-12-06T05:59:39.639Z,84.50
2022-12-06T06:02:06.704Z,84.80
2022-12-06T06:04:33.881Z,85.00
2022-12-06T06:07:00.814Z,85.10
2022-12-06T06:09:27.664Z,85.10
2022-12-06T06:11:55.962Z,85.10
2022-12-06T06:14:22.959Z,85.30
2022-12-06T06:16:49.736Z,85.30
2022-12-06T06:19:16.684Z,85.60
2022-12-06T06:21:43.522Z,85.30
2022-12-06T06:24:10.273Z,85.00
2022-12-06T06:26:37.089Z,84.80
2022-12-06T06:29:03.808Z,84.90
2022-12-06T06:31:30.638Z,84.80
2022-12-06T06:33:57.601Z,84.90
2022-12-06T06:36:24.713Z,85.00
2022-12-06T06:38:51.451Z,85.20
2022-12-06T06:41:18.220Z,85.20
2022-12-06T06:43:44.974Z,85.40
2022-12-06T06:46:11.748Z,85.40
2022-12-06T06:48:39.829Z,85.30
2022-12-06T06:51:10.507Z,85.30
2022-12-06T06:53:38.274Z,85.20
2022-12-06T06:56:06.743Z,85.10
2022-12-06T06:58:33.688Z,85.10
2022-12-06T07:01:03.068Z,85.10
2022-12-06T07:03:30.864Z,85.10
2022-12-06T07:06:06.814Z,85.00
2022-12-06T07:08:33.569Z,84.80
2022-12-06T07:11:00.329Z,84.50
2022-12-06T07:13:29.853Z,84.10
2022-12-06T07:15:58.930Z,84.10
2022-12-06T07:18:26.291Z,84.10
2022-12-06T07:21:06.551Z,84.10
2022-12-06T07:23:35.635Z,84.10
2022-12-06T07:26:16.654Z,84.40
2022-12-06T07:28:45.973Z,84.40
2022-12-06T07:31:23.389Z,84.60
2022-12-06T07:33:59.315Z,84.50
2022-12-06T07:36:29.671Z,84.60
2022-12-06T07:38:59.292Z,84.60
2022-12-06T07:41:48.335Z,84.60
2022-12-06T07:44:36.893Z,84.60
2022-12-06T07:47:04.113Z,84.50
2022-12-06T07:49:31.088Z,84.30
2022-12-06T07:51:58.316Z,84.00
2022-12-06T07:54:26.000Z,84.00
2022-12-06T07:56:53.092Z,84.10
2022-12-06T07:59:19.959Z,84.00
2022-12-06T08:01:46.888Z,83.80
2022-12-06T08:04:14.253Z,83.60
2022-12-06T08:06:44.634Z,83.90
2022-12-06T08:09:12.100Z,83.30
2022-12-06T08:11:38.982Z,83.10
2022-12-06T08:14:05.696Z,83.00
2022-12-06T08:16:35.527Z,83.00
2022-12-06T08:19:02.621Z,82.80
2022-12-06T08:21:29.626Z,82.60
2022-12-06T08:23:56.429Z,82.40
2022-12-06T08:26:24.009Z,82.50
2022-12-06T08:28:51.398Z,82.60
2022-12-06T08:31:24.077Z,82.50
2022-12-06T08:33:51.644Z,82.30
2022-12-06T08:36:21.687Z,82.60
2022-12-06T08:38:49.956Z,82.70
2022-12-06T08:41:36.373Z,82.70
2022-12-06T08:44:04.833Z,82.60
2022-12-06T08:46:33.822Z,82.60
2022-12-06T08:49:01.562Z,82.50
2022-12-06T08:51:29.485Z,82.50
2022-12-06T08:53:56.791Z,82.30
2022-12-06T08:56:24.507Z,82.30
2022-12-06T08:58:54.327Z,82.10
2022-12-06T09:01:35.766Z,82.20
2022-12-06T09:04:07.143Z,82.40
2022-12-06T09:06:34.668Z,82.70
2022-12-06T09:09:01.440Z,82.80
2022-12-06T09:11:28.208Z,82.40
2022-12-06T09:13:54.950Z,81.70
2022-12-06T09:16:24.374Z,81.50
2022-12-06T09:18:52.161Z,81.50
2022-12-06T09:21:24.374Z,81.50
2022-12-06T09:23:54.911Z,81.50
2022-12-06T09:26:21.965Z,81.80
2022-12-06T09:28:50.676Z,82.10
2022-12-06T09:31:19.075Z,82.30
2022-12-06T09:33:46.771Z,82.30
2022-12-06T09:36:26.342Z,81.90
2022-12-06T09:39:16.167Z,81.90
2022-12-06T09:42:00.520Z,82.10
2022-12-06T09:44:39.156Z,82.30
2022-12-06T09:47:51.465Z,81.70
2022-12-06T09:51:21.331Z,81.90
2022-12-06T09:53:58.686Z,81.70
2022-12-06T09:56:37.379Z,82.20
2022-12-06T09:59:34.119Z,82.10
2022-12-06T10:02:45.467Z,81.90
2022-12-06T10:05:31.948Z,81.70
2022-12-06T10:08:31.395Z,81.40
2022-12-06T10:11:36.657Z,81.50
2022-12-06T10:14:15.288Z,81.50
2022-12-06T10:17:33.626Z,81.30
2022-12-06T10:20:21.274Z,81.00
2022-12-06T10:23:10.428Z,81.10
2022-12-06T10:25:53.622Z,81.10
2022-12-06T10:28:43.581Z,81.20
2022-12-06T10:31:27.041Z,81.10
2022-12-06T10:34:20.475Z,81.30
2022-12-06T10:37:21.002Z,81.50
2022-12-06T10:39:59.220Z,81.20
2022-12-06T10:42:56.946Z,81.20
2022-12-06T10:46:04.295Z,81.20
2022-12-06T10:48:50.757Z,81.50
2022-12-06T10:51:27.573Z,81.40
2022-12-06T10:54:07.897Z,81.50
2022-12-06T10:56:41.665Z,81.60
2022-12-06T10:59:34.219Z,81.60
2022-12-06T11:02:22.721Z,81.10
2022-12-06T11:04:55.133Z,81.00
2022-12-06T11:07:29.734Z,80.90
2022-12-06T11:09:58.130Z,80.80
2022-12-06T11:12:38.992Z,80.90
2022-12-06T11:15:43.376Z,80.40
2022-12-06T11:18:15.822Z,80.90
2022-12-06T11:21:22.600Z,81.20
2022-12-06T11:24:16.589Z,81.00
2022-12-06T11:26:52.354Z,80.90
2022-12-06T11:29:19.583Z,80.90
2022-12-06T11:31:51.953Z,81.10
2022-12-06T11:34:39.562Z,81.20
2022-12-06T11:37:08.175Z,81.40
2022-12-06T11:39:35.171Z,81.60
2022-12-06T11:42:04.624Z,81.70
2022-12-06T11:44:44.868Z,81.60
2022-12-06T11:47:19.476Z,81.70
2022-12-06T11:49:49.524Z,81.80
2022-12-06T11:52:39.012Z,81.90
2022-12-06T11:55:36.523Z,82.20
2022-12-06T11:58:15.209Z,82.00
2022-12-06T12:01:13.493Z,82.00
2022-12-06T12:03:45.056Z,81.90
2022-12-06T12:06:27.069Z,82.00
2022-12-06T12:09:01.625Z,82.00
2022-12-06T12:11:37.523Z,82.10
2022-12-06T12:14:18.473Z,82.00
2022-12-06T12:16:56.274Z,81.90
2022-12-06T12:20:02.210Z,81.80
2022-12-06T12:22:42.836Z,81.60
2022-12-06T12:25:30.943Z,81.30
2022-12-06T12:28:03.711Z,81.10
2022-12-06T12:30:51.637Z,81.30
2022-12-06T12:33:21.782Z,81.30
2022-12-06T12:36:10.206Z,81.30
2022-12-06T12:38:56.246Z,81.50
2022-12-06T12:41:43.751Z,81.70
2022-12-06T12:44:46.614Z,82.00
2022-12-06T12:47:19.990Z,82.10
2022-12-06T12:50:14.538Z,82.10
2022-12-06T12:52:42.467Z,82.20
2022-12-06T12:55:22.223Z,82.20
2022-12-06T12:57:52.684Z,82.20
2022-12-06T13:00:24.133Z,82.40
2022-12-06T13:03:00.934Z,82.50
2022-12-06T13:05:35.410Z,82.30
2022-12-06T13:08:21.464Z,82.10
2022-12-06T13:10:58.416Z,82.20
2022-12-06T13:13:34.058Z,82.40
2022-12-06T13:16:10.191Z,82.20
2022-12-06T13:18:50.365Z,82.00
2022-12-06T13:21:34.010Z,81.90
2022-12-06T13:24:13.100Z,81.90
2022-12-06T13:26:59.780Z,81.50
2022-12-06T13:29:41.749Z,81.70
2022-12-06T13:32:21.763Z,81.60
2022-12-06T13:34:57.062Z,81.50
2022-12-06T13:37:43.535Z,81.70
2022-12-06T13:40:32.633Z,81.70
2022-12-06T13:43:04.092Z,81.70
2022-12-06T13:45:42.951Z,81.70
2022-12-06T13:48:25.010Z,81.60
2022-12-06T13:51:11.052Z,81.50
2022-12-06T13:54:03.429Z,81.50
2022-12-06T13:56:39.809Z,81.40
2022-12-06T13:59:12.927Z,81.60
2022-12-06T14:01:53.218Z,81.70
2022-12-06T14:09:47.248Z,81.80
2022-12-06T14:12:26.634Z,81.60
2022-12-06T14:15:06.275Z,81.60
2022-12-06T14:20:30.617Z,81.80
2022-12-06T14:22:57.990Z,82.00
2022-12-06T14:25:28.659Z,82.10
2022-12-06T14:28:12.822Z,82.10
2022-12-06T14:30:39.694Z,81.70
2022-12-06T14:33:26.890Z,81.70
2022-12-06T14:35:55.287Z,81.70
2022-12-06T14:38:29.988Z,81.90
2022-12-06T14:41:16.223Z,81.90
2022-12-06T14:43:47.196Z,81.80
2022-12-06T14:46:17.363Z,81.90
2022-12-06T14:49:03.786Z,82.00
2022-12-06T14:51:41.047Z,82.00
2022-12-06T14:54:41.130Z,82.10
2022-12-06T14:57:25.405Z,82.30
2022-12-06T15:00:16.073Z,82.40
2022-12-06T15:03:22.805Z,82.30
2022-12-06T15:06:17.680Z,82.10
2022-12-06T15:08:51.832Z,82.20
2022-12-06T15:11:38.995Z,82.40
2022-12-06T15:14:23.661Z,82.30
2022-12-06T15:17:10.646Z,82.40
2022-12-06T15:19:50.687Z,82.60
2022-12-06T15:22:26.592Z,82.70
2022-12-06T15:24:57.393Z,82.90
2022-12-06T15:27:27.689Z,83.00
2022-12-06T15:29:55.315Z,83.30
2022-12-06T15:32:25.711Z,83.60
2022-12-06T15:34:52.494Z,83.70
2022-12-06T15:40:08.094Z,83.60
2022-12-06T15:42:35.968Z,83.70
2022-12-06T15:45:03.169Z,83.60
2022-12-06T15:47:30.181Z,83.80
2022-12-06T15:49:58.208Z,84.00
2022-12-06T15:52:26.682Z,84.30
2022-12-06T15:54:53.474Z,84.40
2022-12-06T15:57:20.282Z,84.60
2022-12-06T15:59:47.024Z,84.90
2022-12-06T16:02:17.825Z,84.80
2022-12-06T16:04:45.835Z,85.00
2022-12-06T16:07:18.471Z,85.00
2022-12-06T16:09:44.837Z,85.00
2022-12-06T16:12:11.033Z,85.10
2022-12-06T16:14:37.190Z,85.20
2022-12-06T16:17:03.291Z,85.30
2022-12-06T16:19:49.270Z,85.30
2022-12-06T16:22:15.583Z,85.50
2022-12-06T16:24:41.678Z,85.20
2022-12-06T16:27:08.007Z,85.30
2022-12-06T16:29:34.088Z,85.30
2022-12-06T16:32:00.243Z,85.10
2022-12-06T16:34:27.918Z,85.10
2022-12-06T16:36:55.055Z,85.00
2022-12-06T16:39:21.613Z,85.10
2022-12-06T16:41:47.907Z,85.40
2022-12-06T16:44:14.218Z,85.50
2022-12-06T16:46:41.892Z,85.60
2022-12-06T16:52:16.107Z,85.90
2022-12-06T16:54:43.048Z,85.50
2022-12-06T16:57:12.192Z,85.40
2022-12-06T16:59:38.282Z,85.50
2022-12-06T17:02:28.580Z,85.40
2022-12-06T17:04:56.804Z,85.60
2022-12-06T17:07:23.921Z,85.90
2022-12-06T17:09:50.738Z,85.90
2022-12-06T17:12:17.593Z,85.90
2022-12-06T17:14:44.680Z,85.80
2022-12-06T17:17:15.682Z,85.90
2022-12-06T17:19:43.174Z,86.00
2022-12-06T17:22:12.796Z,86.10
2022-12-06T17:24:39.644Z,86.00
2022-12-06T17:27:08.793Z,85.80
2022-12-06T17:29:36.847Z,86.80
2022-12-06T17:32:03.741Z,86.20
2022-12-06T17:34:30.508Z,86.20
2022-12-06T17:36:57.914Z,86.10
2022-12-06T17:39:25.992Z,86.00
2022-12-06T17:42:11.655Z,86.00
2022-12-06T17:44:39.783Z,86.00
2022-12-06T17:47:06.952Z,86.10
2022-12-06T17:49:36.035Z,86.30
2022-12-06T17:52:02.792Z,86.50
2022-12-06T17:54:29.726Z,86.50
2022-12-06T17:56:56.754Z,86.70
2022-12-06T17:59:30.404Z,86.90
2022-12-06T18:02:17.991Z,87.00
2022-12-06T18:04:47.593Z,87.10
2022-12-06T18:07:16.145Z,87.00
2022-12-06T18:09:42.976Z,86.90
2022-12-06T18:12:11.968Z,87.10
2022-12-06T18:14:38.739Z,87.10
2022-12-06T18:17:05.594Z,86.90
2022-12-06T18:19:33.412Z,86.90
2022-12-06T18:22:00.223Z,87.00
2022-12-06T18:24:33.606Z,86.90
2022-12-06T18:27:02.912Z,87.30
2022-12-06T18:29:29.827Z,87.40
2022-12-06T18:31:57.202Z,87.20
2022-12-06T18:34:24.108Z,87.30
2022-12-06T18:36:51.335Z,87.40
2022-12-06T18:39:25.674Z,87.70
2022-12-06T18:41:53.686Z,87.90
2022-12-06T18:44:20.805Z,87.70
2022-12-06T18:46:47.747Z,87.70
2022-12-06T18:49:15.174Z,87.80
2022-12-06T18:51:42.283Z,87.90
2022-12-06T18:54:10.915Z,87.90
2022-12-06T18:56:38.707Z,87.90
2022-12-06T18:59:07.192Z,87.70
2022-12-06T19:01:38.755Z,87.80
2022-12-06T19:04:09.427Z,87.10
2022-12-06T19:06:38.295Z,87.50
2022-12-06T19:09:13.000Z,87.40
2022-12-06T19:11:43.796Z,87.40
2022-12-06T19:14:10.940Z,87.40
2022-12-06T19:16:45.164Z,87.30
2022-12-06T19:19:19.522Z,87.20
2022-12-06T19:21:47.713Z,87.20
2022-12-06T19:24:22.212Z,87.20
2022-12-06T19:26:54.348Z,87.20
2022-12-06T19:29:22.071Z,87.20
2022-12-06T19:31:48.877Z,87.20
2022-12-06T19:34:25.814Z,87.10
2022-12-06T19:36:54.616Z,87.40
2022-12-06T19:39:22.123Z,87.20
2022-12-06T19:42:07.682Z,87.10
2022-12-06T19:44:34.909Z,87.20
2022-12-06T19:47:02.075Z,87.20
2022-12-06T19:49:29.082Z,87.30
2022-12-06T19:51:56.166Z,87.50
2022-12-06T19:54:27.434Z,87.60
2022-12-06T19:56:57.323Z,87.70
2022-12-06T19:59:27.222Z,87.70
2022-12-06T20:01:54.652Z,87.60
2022-12-06T20:04:25.458Z,87.40
2022-12-06T20:06:53.677Z,87.50
2022-12-06T20:09:23.736Z,87.40
2022-12-06T20:12:02.910Z,87.40
2022-12-06T20:14:34.776Z,87.40
2022-12-06T20:17:04.781Z,87.40
2022-12-06T20:19:31.540Z,87.40
2022-12-06T20:21:58.248Z,87.40
2022-12-06T20:24:24.969Z,87.30
2022-12-06T20:26:54.489Z,87.20
2022-12-06T20:29:22.517Z,87.30
2022-12-06T20:31:51.505Z,87.20
2022-12-06T20:34:19.125Z,87.10
2022-12-06T20:36:46.849Z,87.10
2022-12-06T20:39:24.505Z,86.90
2022-12-06T20:41:52.135Z,87.00
2022-12-06T20:44:19.802Z,86.80
2022-12-06T20:46:49.815Z,86.80
2022-12-06T20:49:16.682Z,86.90
2022-12-06T20:51:46.845Z,87.00
2022-12-06T20:54:16.378Z,86.90
2022-12-06T20:56:43.188Z,86.80
2022-12-06T20:59:11.412Z,86.70
2022-12-06T21:01:41.050Z,86.70
2022-12-06T21:04:12.543Z,86.80
2022-12-06T21:06:39.567Z,86.80
2022-12-06T21:09:06.360Z,86.80
2022-12-06T21:11:33.275Z,86.90
2022-12-06T21:14:00.085Z,87.20
2022-12-06T21:16:31.364Z,87.10
2022-12-06T21:19:02.320Z,87.40
2022-12-06T21:21:34.377Z,87.50
2022-12-06T21:24:04.456Z,87.50
2022-12-06T21:26:31.725Z,87.40
2022-12-06T21:28:59.145Z,87.40
2022-12-06T21:31:29.466Z,87.40
2022-12-06T21:33:57.276Z,87.40
2022-12-06T21:36:25.277Z,87.30
2022-12-06T21:38:53.043Z,87.40
2022-12-06T21:41:21.139Z,88.10
2022-12-06T21:43:48.313Z,87.40
2022-12-06T21:46:19.359Z,87.20
2022-12-06T21:48:51.812Z,87.10
2022-12-06T21:51:19.132Z,87.10
2022-12-06T21:53:45.902Z,87.10
2022-12-06T21:56:17.853Z,87.20
2022-12-06T21:58:45.809Z,87.40
2022-12-06T22:01:21.576Z,87.50
2022-12-06T22:03:51.024Z,87.50
2022-12-06T22:06:18.255Z,87.40
2022-12-06T22:08:47.038Z,87.20
2022-12-06T22:11:17.975Z,87.00
2022-12-06T22:13:46.830Z,87.00
2022-12-06T22:16:15.611Z,87.00
2022-12-06T22:18:45.785Z,86.90
2022-12-06T22:21:18.915Z,87.00
2022-12-06T22:23:47.583Z,86.90
2022-12-06T22:26:18.692Z,86.60
2022-12-06T22:28:46.989Z,86.40
2022-12-06T22:31:21.613Z,86.50
2022-12-06T22:33:49.720Z,86.50
2022-12-06T22:36:17.665Z,86.60
2022-12-06T22:38:47.613Z,86.90
2022-12-06T22:41:14.396Z,86.90
2022-12-06T22:43:41.165Z,86.80
2022-12-06T22:46:13.253Z,86.90
2022-12-06T22:48:41.499Z,86.70
2022-12-06T22:51:18.739Z,86.50
2022-12-06T22:53:51.957Z,86.30
2022-12-06T22:56:18.991Z,86.50
2022-12-06T22:58:45.772Z,86.50
2022-12-06T23:01:19.189Z,86.40
2022-12-06T23:03:48.776Z,86.50
2022-12-06T23:06:18.410Z,86.50
2022-12-06T23:08:45.484Z,86.60
2022-12-06T23:11:15.786Z,86.50
2022-12-06T23:13:43.303Z,86.40
2022-12-06T23:16:20.208Z,86.40
2022-12-06T23:18:48.140Z,86.50
2022-12-06T23:21:25.843Z,86.50
2022-12-06T23:23:59.826Z,86.80
2022-12-06T23:26:29.469Z,86.90
2022-12-06T23:28:56.372Z,87.40
2022-12-06T23:31:29.805Z,87.00
2022-12-06T23:34:01.163Z,87.20
2022-12-06T23:36:32.219Z,87.10
2022-12-06T23:38:59.126Z,86.60
2022-12-06T23:41:31.072Z,86.10
2022-12-06T23:43:59.240Z,85.90
2022-12-06T23:46:33.032Z,85.90
2022-12-06T23:49:00.649Z,85.70
2022-12-06T23:51:34.015Z,85.70
2022-12-06T23:54:04.733Z,85.70
2022-12-06T23:56:35.273Z,85.60
2022-12-06T23:59:04.398Z,85.70
